Terminal Aerodrome Forecast
Issued by NWS

Home | Current Version | Previous Version | Text Only | Print | Product List | Glossary On
Versions: 1 2 3 4 5 6 7 8 9 10 11 12
000
FTUS44 KTSA 262337
TAFMLC
TAF
KMLC 262337Z 2700/2724 VRB04KT P6SM SCT040 BKN250
     FM271200 VRB03KT P6SM FEW020 BKN200
     FM271600 15005KT P6SM SCT050 BKN200=

USA.gov is the U.S. government's official web portal to all federal, state and local government web resources and services.